< < Back
Terminal Aerodrome Forecast


Current Version              Previous Versions:   1  2  3  4  5  6  7  8  9  

Terminal Aerodrome Forecast

112
FTUS42 KCHS 010532
TAFCHS
TAF
KCHS 010532Z 0106/0206 VRB02KT 6SM MIFG FEW015 SCT100
     FM011400 04004KT P6SM FEW015 BKN040
     FM011900 17007KT P6SM SCT030 SCT100
     FM020000 VRB03KT P6SM FEW025 SCT100=

Latest METAR

628
SAUS80 KWBC 011600 RRI
MTRCHS
METAR KCHS 011556Z 30003KT 10SM SCT030 SCT250 30/22 A3011 RMK AO2 SLP196
T03000217


USA.gov is the U.S. government's official web portal to all federal, state and local government web resources and services.